sensor_id;sensor_type;location;lat;lon;timestamp;pressure;altitude;pressure_sealevel;temperature;humidity
54850;BME280;47660;51.334;12.396;2023-06-26T00:01:26;100204.94;;;30.00;53.70
54850;BME280;47660;51.334;12.396;2023-06-26T00:03:55;100199.56;;;29.68;54.13
54850;BME280;47660;51.334;12.396;2023-06-26T00:06:22;100192.38;;;29.73;54.00
54850;BME280;47660;51.334;12.396;2023-06-26T00:08:55;100194.03;;;30.12;52.64
54850;BME280;47660;51.334;12.396;2023-06-26T00:11:21;100192.50;;;30.16;52.42
54850;BME280;47660;51.334;12.396;2023-06-26T00:13:49;100190.75;;;29.65;54.07
54850;BME280;47660;51.334;12.396;2023-06-26T00:16:17;100189.84;;;29.90;51.98
54850;BME280;47660;51.334;12.396;2023-06-26T00:18:44;100182.63;;;29.77;52.72
54850;BME280;47660;51.334;12.396;2023-06-26T00:21:10;100176.84;;;29.67;52.90
54850;BME280;47660;51.334;12.396;2023-06-26T00:23:41;100181.78;;;29.40;53.33
54850;BME280;47660;51.334;12.396;2023-06-26T00:26:08;100184.66;;;29.82;51.69
54850;BME280;47660;51.334;12.396;2023-06-26T00:28:35;100183.91;;;29.75;51.15
54850;BME280;47660;51.334;12.396;2023-06-26T00:31:03;100190.22;;;30.43;49.37
54850;BME280;47660;51.334;12.396;2023-06-26T00:33:28;100181.38;;;30.11;50.79
54850;BME280;47660;51.334;12.396;2023-06-26T00:35:56;100174.50;;;30.20;50.06
54850;BME280;47660;51.334;12.396;2023-06-26T00:38:24;100184.72;;;29.94;49.68
54850;BME280;47660;51.334;12.396;2023-06-26T00:40:49;100179.47;;;30.11;49.67
54850;BME280;47660;51.334;12.396;2023-06-26T00:43:14;100175.28;;;30.08;49.90
54850;BME280;47660;51.334;12.396;2023-06-26T00:45:40;100180.56;;;30.10;49.78
54850;BME280;47660;51.334;12.396;2023-06-26T00:48:06;100174.56;;;29.83;50.67
54850;BME280;47660;51.334;12.396;2023-06-26T00:50:31;100172.06;;;30.00;51.04
54850;BME280;47660;51.334;12.396;2023-06-26T00:52:59;100175.53;;;30.07;50.25
54850;BME280;47660;51.334;12.396;2023-06-26T00:55:27;100163.03;;;30.11;50.19
54850;BME280;47660;51.334;12.396;2023-06-26T00:57:54;100167.84;;;30.58;49.20
54850;BME280;47660;51.334;12.396;2023-06-26T01:00:22;100169.59;;;29.73;50.81
54850;BME280;47660;51.334;12.396;2023-06-26T01:02:48;100169.44;;;29.68;50.79
54850;BME280;47660;51.334;12.396;2023-06-26T01:05:14;100164.72;;;29.93;50.72
54850;BME280;47660;51.334;12.396;2023-06-26T01:07:49;100161.59;;;30.08;51.22
54850;BME280;47660;51.334;12.396;2023-06-26T01:10:15;100163.44;;;29.59;53.65
54850;BME280;47660;51.334;12.396;2023-06-26T01:12:40;100159.78;;;29.65;52.63
54850;BME280;47660;51.334;12.396;2023-06-26T01:15:09;100156.59;;;29.49;53.33
54850;BME280;47660;51.334;12.396;2023-06-26T01:17:37;100161.38;;;29.73;52.39
54850;BME280;47660;51.334;12.396;2023-06-26T01:20:10;100164.38;;;29.09;53.21
54850;BME280;47660;51.334;12.396;2023-06-26T01:25:33;100143.47;;;29.58;52.39
54850;BME280;47660;51.334;12.396;2023-06-26T01:28:07;100149.22;;;29.50;52.66
54850;BME280;47660;51.334;12.396;2023-06-26T01:30:37;100143.03;;;30.22;51.06
54850;BME280;47660;51.334;12.396;2023-06-26T01:33:06;100143.41;;;29.77;52.52
54850;BME280;47660;51.334;12.396;2023-06-26T01:35:35;100143.72;;;30.06;50.30
54850;BME280;47660;51.334;12.396;2023-06-26T01:38:14;100141.50;;;30.69;50.02
54850;BME280;47660;51.334;12.396;2023-06-26T01:40:43;100143.34;;;29.84;51.38
54850;BME280;47660;51.334;12.396;2023-06-26T01:43:20;100140.75;;;30.50;50.46
54850;BME280;47660;51.334;12.396;2023-06-26T01:45:51;100135.69;;;29.55;51.81
54850;BME280;47660;51.334;12.396;2023-06-26T01:48:23;100129.97;;;29.75;52.24
54850;BME280;47660;51.334;12.396;2023-06-26T01:50:53;100126.69;;;30.04;51.95
54850;BME280;47660;51.334;12.396;2023-06-26T01:53:21;100124.19;;;30.14;50.88
54850;BME280;47660;51.334;12.396;2023-06-26T01:56:06;100120.97;;;30.60;49.83
54850;BME280;47660;51.334;12.396;2023-06-26T01:58:37;100129.66;;;29.46;52.06
54850;BME280;47660;51.334;12.396;2023-06-26T02:01:06;100128.69;;;29.59;52.45
54850;BME280;47660;51.334;12.396;2023-06-26T02:03:31;100127.38;;;29.43;51.69
54850;BME280;47660;51.334;12.396;2023-06-26T02:05:56;100121.78;;;28.94;52.19
54850;BME280;47660;51.334;12.396;2023-06-26T02:08:24;100115.72;;;30.04;51.74
54850;BME280;47660;51.334;12.396;2023-06-26T02:10:50;100122.09;;;29.23;51.74
54850;BME280;47660;51.334;12.396;2023-06-26T02:13:15;100120.91;;;28.68;53.30
54850;BME280;47660;51.334;12.396;2023-06-26T02:15:41;100123.22;;;28.97;54.46
54850;BME280;47660;51.334;12.396;2023-06-26T02:18:06;100125.47;;;28.74;53.95
54850;BME280;47660;51.334;12.396;2023-06-26T02:20:31;100119.09;;;28.62;53.80
54850;BME280;47660;51.334;12.396;2023-06-26T02:22:58;100110.66;;;28.89;54.39
54850;BME280;47660;51.334;12.396;2023-06-26T02:25:26;100114.19;;;28.96;53.17
54850;BME280;47660;51.334;12.396;2023-06-26T02:27:53;100114.75;;;28.80;52.86
54850;BME280;47660;51.334;12.396;2023-06-26T02:30:20;100111.88;;;28.42;54.62
54850;BME280;47660;51.334;12.396;2023-06-26T02:32:45;100125.81;;;28.34;54.48
54850;BME280;47660;51.334;12.396;2023-06-26T02:35:11;100120.41;;;28.53;54.68
54850;BME280;47660;51.334;12.396;2023-06-26T02:37:36;100114.53;;;28.49;53.78
54850;BME280;47660;51.334;12.396;2023-06-26T02:40:02;100110.75;;;29.01;53.33
54850;BME280;47660;51.334;12.396;2023-06-26T02:42:31;100116.84;;;29.03;54.19
54850;BME280;47660;51.334;12.396;2023-06-26T02:44:57;100114.59;;;28.42;54.48
54850;BME280;47660;51.334;12.396;2023-06-26T02:47:27;100110.94;;;29.25;53.37
54850;BME280;47660;51.334;12.396;2023-06-26T02:49:52;100109.81;;;27.99;56.00
54850;BME280;47660;51.334;12.396;2023-06-26T02:52:17;100116.78;;;27.95;56.94
54850;BME280;47660;51.334;12.396;2023-06-26T02:54:46;100123.91;;;27.37;58.36
54850;BME280;47660;51.334;12.396;2023-06-26T02:57:12;100118.25;;;27.38;59.09
54850;BME280;47660;51.334;12.396;2023-06-26T02:59:38;100115.50;;;27.32;60.21
54850;BME280;47660;51.334;12.396;2023-06-26T03:02:06;100101.38;;;28.07;57.65
54850;BME280;47660;51.334;12.396;2023-06-26T03:04:32;100101.97;;;28.09;57.61
54850;BME280;47660;51.334;12.396;2023-06-26T03:07:02;100105.66;;;28.28;58.01
54850;BME280;47660;51.334;12.396;2023-06-26T03:09:30;100105.16;;;28.06;58.73
54850;BME280;47660;51.334;12.396;2023-06-26T03:12:00;100097.22;;;28.37;56.74
54850;BME280;47660;51.334;12.396;2023-06-26T03:14:26;100097.88;;;28.57;56.39
54850;BME280;47660;51.334;12.396;2023-06-26T03:16:52;100101.84;;;28.61;56.79
54850;BME280;47660;51.334;12.396;2023-06-26T03:19:20;100101.38;;;28.39;58.19
54850;BME280;47660;51.334;12.396;2023-06-26T03:21:46;100101.72;;;28.75;56.46
54850;BME280;47660;51.334;12.396;2023-06-26T03:24:15;100103.72;;;28.36;57.70
54850;BME280;47660;51.334;12.396;2023-06-26T03:26:40;100112.22;;;27.82;59.31
54850;BME280;47660;51.334;12.396;2023-06-26T03:29:05;100106.03;;;28.00;59.19
54850;BME280;47660;51.334;12.396;2023-06-26T03:31:34;100096.97;;;28.38;59.18
54850;BME280;47660;51.334;12.396;2023-06-26T03:33:59;100098.63;;;28.14;58.59
54850;BME280;47660;51.334;12.396;2023-06-26T03:36:27;100097.25;;;28.30;58.18
54850;BME280;47660;51.334;12.396;2023-06-26T03:38:55;100096.31;;;28.94;58.10
54850;BME280;47660;51.334;12.396;2023-06-26T03:41:23;100092.13;;;28.40;60.26
54850;BME280;47660;51.334;12.396;2023-06-26T03:43:49;100093.66;;;27.52;61.69
54850;BME280;47660;51.334;12.396;2023-06-26T03:46:14;100090.38;;;27.82;61.12
54850;BME280;47660;51.334;12.396;2023-06-26T03:48:40;100088.44;;;27.89;60.96
54850;BME280;47660;51.334;12.396;2023-06-26T03:51:06;100087.91;;;28.06;60.82
54850;BME280;47660;51.334;12.396;2023-06-26T03:53:32;100087.06;;;28.12;59.76
54850;BME280;47660;51.334;12.396;2023-06-26T03:56:00;100079.34;;;28.59;58.00
54850;BME280;47660;51.334;12.396;2023-06-26T03:58:25;100072.00;;;28.85;56.39
54850;BME280;47660;51.334;12.396;2023-06-26T04:00:53;100082.97;;;28.53;57.21
54850;BME280;47660;51.334;12.396;2023-06-26T04:03:22;100070.41;;;28.96;56.28
54850;BME280;47660;51.334;12.396;2023-06-26T04:05:50;100080.84;;;28.30;59.21
54850;BME280;47660;51.334;12.396;2023-06-26T04:08:15;100077.63;;;27.69;60.04
54850;BME280;47660;51.334;12.396;2023-06-26T04:10:41;100082.75;;;27.91;59.39
54850;BME280;47660;51.334;12.396;2023-06-26T04:13:06;100076.41;;;28.61;56.44
54850;BME280;47660;51.334;12.396;2023-06-26T04:15:31;100067.06;;;28.69;56.25
54850;BME280;47660;51.334;12.396;2023-06-26T04:17:57;100076.41;;;28.61;56.07
54850;BME280;47660;51.334;12.396;2023-06-26T04:20:22;100076.34;;;28.10;57.61
54850;BME280;47660;51.334;12.396;2023-06-26T04:22:48;100071.81;;;28.55;55.79
54850;BME280;47660;51.334;12.396;2023-06-26T04:25:13;100075.56;;;27.96;57.56
54850;BME280;47660;51.334;12.396;2023-06-26T04:27:39;100067.34;;;28.35;57.27
54850;BME280;47660;51.334;12.396;2023-06-26T04:30:05;100069.56;;;28.77;56.29
54850;BME280;47660;51.334;12.396;2023-06-26T04:32:33;100063.78;;;28.35;56.31
54850;BME280;47660;51.334;12.396;2023-06-26T04:34:58;100068.66;;;27.94;58.42
54850;BME280;47660;51.334;12.396;2023-06-26T04:37:24;100066.31;;;27.97;58.55
54850;BME280;47660;51.334;12.396;2023-06-26T04:39:50;100075.34;;;27.66;59.96
54850;BME280;47660;51.334;12.396;2023-06-26T04:42:15;100079.16;;;27.51;60.33
54850;BME280;47660;51.334;12.396;2023-06-26T04:44:41;100075.47;;;28.10;58.20
54850;BME280;47660;51.334;12.396;2023-06-26T04:47:07;100067.78;;;27.61;60.53
54850;BME280;47660;51.334;12.396;2023-06-26T04:49:35;100070.84;;;28.17;58.20
54850;BME280;47660;51.334;12.396;2023-06-26T04:52:00;100067.38;;;27.96;59.49
54850;BME280;47660;51.334;12.396;2023-06-26T04:54:28;100060.97;;;28.16;58.99
54850;BME280;47660;51.334;12.396;2023-06-26T04:56:54;100057.03;;;28.63;57.00
54850;BME280;47660;51.334;12.396;2023-06-26T04:59:19;100058.94;;;28.37;57.03
54850;BME280;47660;51.334;12.396;2023-06-26T05:01:45;100066.66;;;27.76;59.12
54850;BME280;47660;51.334;12.396;2023-06-26T05:04:14;100052.84;;;28.85;56.18
54850;BME280;47660;51.334;12.396;2023-06-26T05:06:43;100048.13;;;29.48;53.32
54850;BME280;47660;51.334;12.396;2023-06-26T05:09:11;100050.19;;;29.16;53.73
54850;BME280;47660;51.334;12.396;2023-06-26T05:11:41;100040.31;;;29.15;55.28
54850;BME280;47660;51.334;12.396;2023-06-26T05:14:08;100044.72;;;29.53;53.12
54850;BME280;47660;51.334;12.396;2023-06-26T05:16:38;100033.19;;;30.24;50.89
54850;BME280;47660;51.334;12.396;2023-06-26T05:19:04;100028.50;;;30.13;50.14
54850;BME280;47660;51.334;12.396;2023-06-26T05:21:32;100030.50;;;29.75;52.41
54850;BME280;47660;51.334;12.396;2023-06-26T05:23:57;100026.38;;;29.54;53.01
54850;BME280;47660;51.334;12.396;2023-06-26T05:26:25;100027.88;;;29.68;52.53
54850;BME280;47660;51.334;12.396;2023-06-26T05:28:53;100027.16;;;29.73;52.09
54850;BME280;47660;51.334;12.396;2023-06-26T05:31:19;100028.88;;;28.37;55.74
54850;BME280;47660;51.334;12.396;2023-06-26T05:33:48;100019.47;;;29.82;53.30
54850;BME280;47660;51.334;12.396;2023-06-26T05:36:16;100023.09;;;30.72;49.54
54850;BME280;47660;51.334;12.396;2023-06-26T05:38:43;100024.66;;;28.59;54.24
54850;BME280;47660;51.334;12.396;2023-06-26T05:41:11;100028.22;;;29.04;53.90
54850;BME280;47660;51.334;12.396;2023-06-26T05:43:37;100028.72;;;29.99;51.18
54850;BME280;47660;51.334;12.396;2023-06-26T05:46:04;100026.28;;;30.45;49.81
54850;BME280;47660;51.334;12.396;2023-06-26T05:48:30;100022.31;;;30.17;50.28
54850;BME280;47660;51.334;12.396;2023-06-26T05:50:55;100021.31;;;30.78;49.19
54850;BME280;47660;51.334;12.396;2023-06-26T05:53:21;100019.34;;;30.43;49.89
54850;BME280;47660;51.334;12.396;2023-06-26T05:55:47;100018.25;;;31.27;48.14
54850;BME280;47660;51.334;12.396;2023-06-26T05:58:14;100016.38;;;30.92;49.38
54850;BME280;47660;51.334;12.396;2023-06-26T06:00:40;100018.50;;;29.88;50.91
54850;BME280;47660;51.334;12.396;2023-06-26T06:03:09;100016.97;;;30.94;48.99
54850;BME280;47660;51.334;12.396;2023-06-26T06:05:35;100017.69;;;31.01;48.36
54850;BME280;47660;51.334;12.396;2023-06-26T06:08:01;100018.84;;;31.87;47.04
54850;BME280;47660;51.334;12.396;2023-06-26T06:10:29;100020.25;;;31.32;48.00
54850;BME280;47660;51.334;12.396;2023-06-26T06:12:54;100035.22;;;30.88;47.53
54850;BME280;47660;51.334;12.396;2023-06-26T06:15:19;100035.09;;;31.60;46.63
54850;BME280;47660;51.334;12.396;2023-06-26T06:17:45;100024.69;;;31.09;47.04
54850;BME280;47660;51.334;12.396;2023-06-26T06:20:13;100023.09;;;30.72;48.16
54850;BME280;47660;51.334;12.396;2023-06-26T06:22:38;100015.97;;;31.24;47.12
54850;BME280;47660;51.334;12.396;2023-06-26T06:25:04;100019.16;;;30.80;48.14
54850;BME280;47660;51.334;12.396;2023-06-26T06:27:29;100019.41;;;30.00;50.25
54850;BME280;47660;51.334;12.396;2023-06-26T06:29:56;100011.03;;;31.67;46.49
54850;BME280;47660;51.334;12.396;2023-06-26T06:32:21;100005.13;;;32.21;45.25
54850;BME280;47660;51.334;12.396;2023-06-26T06:34:46;100018.00;;;32.04;45.13
54850;BME280;47660;51.334;12.396;2023-06-26T06:37:12;100005.13;;;32.55;44.29
54850;BME280;47660;51.334;12.396;2023-06-26T06:39:42;100010.03;;;32.02;45.67
54850;BME280;47660;51.334;12.396;2023-06-26T06:42:07;100007.94;;;33.00;43.35
54850;BME280;47660;51.334;12.396;2023-06-26T06:44:33;100005.44;;;32.08;45.33
54850;BME280;47660;51.334;12.396;2023-06-26T06:47:01;100002.88;;;32.01;44.52
54850;BME280;47660;51.334;12.396;2023-06-26T06:49:27;99995.34;;;33.04;42.66
54850;BME280;47660;51.334;12.396;2023-06-26T06:51:52;100000.13;;;33.36;42.56
54850;BME280;47660;51.334;12.396;2023-06-26T06:54:17;99990.34;;;33.23;42.92
54850;BME280;47660;51.334;12.396;2023-06-26T06:56:44;99993.63;;;31.90;45.31
54850;BME280;47660;51.334;12.396;2023-06-26T06:59:10;99991.72;;;32.81;44.14
54850;BME280;47660;51.334;12.396;2023-06-26T07:01:36;99985.06;;;32.21;44.67
54850;BME280;47660;51.334;12.396;2023-06-26T07:04:03;99991.16;;;32.79;42.57
54850;BME280;47660;51.334;12.396;2023-06-26T07:06:29;99989.44;;;33.17;41.67
54850;BME280;47660;51.334;12.396;2023-06-26T07:08:55;99983.75;;;32.63;41.99
54850;BME280;47660;51.334;12.396;2023-06-26T07:11:20;99981.47;;;32.94;42.08
54850;BME280;47660;51.334;12.396;2023-06-26T07:13:46;99988.72;;;31.92;44.54
54850;BME280;47660;51.334;12.396;2023-06-26T07:16:13;99975.38;;;32.92;43.57
54850;BME280;47660;51.334;12.396;2023-06-26T07:18:40;99981.16;;;32.34;42.68
54850;BME280;47660;51.334;12.396;2023-06-26T07:21:08;99979.38;;;34.11;40.55
54850;BME280;47660;51.334;12.396;2023-06-26T07:23:33;99982.06;;;33.01;41.89
54850;BME280;47660;51.334;12.396;2023-06-26T07:25:59;99980.03;;;32.91;42.71
54850;BME280;47660;51.334;12.396;2023-06-26T07:28:26;99978.28;;;33.52;41.55
54850;BME280;47660;51.334;12.396;2023-06-26T07:30:52;99975.44;;;34.01;40.74
54850;BME280;47660;51.334;12.396;2023-06-26T07:33:18;99980.56;;;33.38;41.05
54850;BME280;47660;51.334;12.396;2023-06-26T07:35:43;99977.16;;;33.80;40.08
54850;BME280;47660;51.334;12.396;2023-06-26T07:38:09;99974.13;;;34.09;40.04
54850;BME280;47660;51.334;12.396;2023-06-26T07:40:34;99978.16;;;34.34;38.92
54850;BME280;47660;51.334;12.396;2023-06-26T07:43:00;99984.13;;;33.33;40.63
54850;BME280;47660;51.334;12.396;2023-06-26T07:45:28;99976.03;;;33.26;42.14
54850;BME280;47660;51.334;12.396;2023-06-26T07:47:54;99974.09;;;32.99;41.86
54850;BME280;47660;51.334;12.396;2023-06-26T07:50:41;99961.91;;;35.80;37.55
54850;BME280;47660;51.334;12.396;2023-06-26T07:53:11;99964.09;;;35.47;38.20
54850;BME280;47660;51.334;12.396;2023-06-26T07:55:42;99972.56;;;34.61;39.60
54850;BME280;47660;51.334;12.396;2023-06-26T07:58:08;99965.03;;;34.09;39.60
54850;BME280;47660;51.334;12.396;2023-06-26T08:00:54;99966.97;;;34.08;39.49
54850;BME280;47660;51.334;12.396;2023-06-26T08:03:20;99958.03;;;34.81;38.28
54850;BME280;47660;51.334;12.396;2023-06-26T08:06:00;99965.31;;;34.50;38.96
54850;BME280;47660;51.334;12.396;2023-06-26T08:08:29;99963.41;;;33.53;40.79
54850;BME280;47660;51.334;12.396;2023-06-26T08:10:54;99957.63;;;35.05;38.19
54850;BME280;47660;51.334;12.396;2023-06-26T08:13:22;99962.13;;;34.31;39.89
54850;BME280;47660;51.334;12.396;2023-06-26T08:15:50;99958.38;;;33.72;41.11
54850;BME280;47660;51.334;12.396;2023-06-26T08:18:17;99955.78;;;35.37;38.52
54850;BME280;47660;51.334;12.396;2023-06-26T08:20:43;99948.81;;;33.85;40.58
54850;BME280;47660;51.334;12.396;2023-06-26T08:23:08;99944.22;;;36.23;37.35
54850;BME280;47660;51.334;12.396;2023-06-26T08:25:33;99947.09;;;35.02;38.63
54850;BME280;47660;51.334;12.396;2023-06-26T08:27:59;99952.41;;;34.18;40.61
54850;BME280;47660;51.334;12.396;2023-06-26T08:30:24;99945.59;;;35.79;38.03
54850;BME280;47660;51.334;12.396;2023-06-26T08:32:55;99946.03;;;36.69;36.10
54850;BME280;47660;51.334;12.396;2023-06-26T08:35:21;99943.38;;;34.76;39.48
54850;BME280;47660;51.334;12.396;2023-06-26T08:37:46;99943.31;;;35.29;38.47
54850;BME280;47660;51.334;12.396;2023-06-26T08:40:12;99947.81;;;35.51;38.03
54850;BME280;47660;51.334;12.396;2023-06-26T08:42:44;99940.66;;;36.07;37.53
54850;BME280;47660;51.334;12.396;2023-06-26T08:45:09;99946.97;;;35.66;37.43
54850;BME280;47660;51.334;12.396;2023-06-26T08:47:37;99935.31;;;36.52;36.41
54850;BME280;47660;51.334;12.396;2023-06-26T08:50:12;99940.31;;;36.29;37.40
54850;BME280;47660;51.334;12.396;2023-06-26T08:52:56;99945.03;;;35.66;38.30
54850;BME280;47660;51.334;12.396;2023-06-26T08:55:23;99935.81;;;37.25;35.93
54850;BME280;47660;51.334;12.396;2023-06-26T08:57:51;99927.66;;;36.99;35.68
54850;BME280;47660;51.334;12.396;2023-06-26T09:00:18;99931.50;;;35.86;37.49
54850;BME280;47660;51.334;12.396;2023-06-26T09:02:44;99932.13;;;36.90;36.22
54850;BME280;47660;51.334;12.396;2023-06-26T09:05:11;99930.63;;;36.26;35.09
54850;BME280;47660;51.334;12.396;2023-06-26T09:07:36;99925.25;;;36.77;33.76
54850;BME280;47660;51.334;12.396;2023-06-26T09:10:02;99928.19;;;37.06;32.81
54850;BME280;47660;51.334;12.396;2023-06-26T09:12:31;99940.34;;;35.72;37.30
54850;BME280;47660;51.334;12.396;2023-06-26T09:14:56;99940.63;;;37.09;35.14
54850;BME280;47660;51.334;12.396;2023-06-26T09:17:30;99934.41;;;37.33;33.68
54850;BME280;47660;51.334;12.396;2023-06-26T09:19:55;99923.66;;;37.21;32.71
54850;BME280;47660;51.334;12.396;2023-06-26T09:22:22;99922.41;;;37.48;32.99
54850;BME280;47660;51.334;12.396;2023-06-26T09:24:50;99915.44;;;36.29;34.30
54850;BME280;47660;51.334;12.396;2023-06-26T09:27:16;99922.94;;;36.99;34.01
54850;BME280;47660;51.334;12.396;2023-06-26T09:29:44;99918.25;;;37.00;33.12
54850;BME280;47660;51.334;12.396;2023-06-26T09:32:10;99927.88;;;36.26;34.02
54850;BME280;47660;51.334;12.396;2023-06-26T09:34:41;99914.34;;;37.46;33.30
54850;BME280;47660;51.334;12.396;2023-06-26T09:37:07;99919.53;;;36.42;33.18
54850;BME280;47660;51.334;12.396;2023-06-26T09:39:33;99915.69;;;36.33;33.73
54850;BME280;47660;51.334;12.396;2023-06-26T09:42:01;99905.44;;;37.54;32.30
54850;BME280;47660;51.334;12.396;2023-06-26T09:44:27;99904.59;;;37.14;32.78
54850;BME280;47660;51.334;12.396;2023-06-26T09:46:54;99905.91;;;36.71;33.18
54850;BME280;47660;51.334;12.396;2023-06-26T09:49:23;99909.13;;;35.97;34.36
54850;BME280;47660;51.334;12.396;2023-06-26T09:51:48;99898.69;;;36.70;33.44
54850;BME280;47660;51.334;12.396;2023-06-26T09:54:23;99896.50;;;37.63;32.38
54850;BME280;47660;51.334;12.396;2023-06-26T09:56:51;99898.97;;;38.72;31.46
54850;BME280;47660;51.334;12.396;2023-06-26T09:59:19;99893.50;;;37.14;31.63
54850;BME280;47660;51.334;12.396;2023-06-26T10:01:46;99890.16;;;39.08;30.12
54850;BME280;47660;51.334;12.396;2023-06-26T10:04:11;99895.44;;;37.53;31.71
54850;BME280;47660;51.334;12.396;2023-06-26T10:06:41;99887.97;;;38.13;31.69
54850;BME280;47660;51.334;12.396;2023-06-26T10:09:10;99886.75;;;38.00;31.64
54850;BME280;47660;51.334;12.396;2023-06-26T10:12:12;99889.09;;;37.53;31.98
54850;BME280;47660;51.334;12.396;2023-06-26T10:14:41;99887.06;;;37.24;32.77
54850;BME280;47660;51.334;12.396;2023-06-26T10:17:11;99884.41;;;37.08;32.98
54850;BME280;47660;51.334;12.396;2023-06-26T10:19:40;99883.88;;;38.10;31.11
54850;BME280;47660;51.334;12.396;2023-06-26T10:22:09;99877.53;;;37.75;30.73
54850;BME280;47660;51.334;12.396;2023-06-26T10:24:36;99880.50;;;37.84;30.20
54850;BME280;47660;51.334;12.396;2023-06-26T10:27:31;99868.94;;;37.71;29.52
54850;BME280;47660;51.334;12.396;2023-06-26T10:30:04;99865.16;;;37.62;29.80
54850;BME280;47660;51.334;12.396;2023-06-26T10:32:32;99861.31;;;37.87;29.70
54850;BME280;47660;51.334;12.396;2023-06-26T10:34:58;99857.75;;;40.03;27.85
54850;BME280;47660;51.334;12.396;2023-06-26T10:37:43;99857.13;;;38.44;29.26
54850;BME280;47660;51.334;12.396;2023-06-26T10:40:09;99849.38;;;37.92;29.88
54850;BME280;47660;51.334;12.396;2023-06-26T10:42:37;99856.69;;;38.07;29.86
54850;BME280;47660;51.334;12.396;2023-06-26T10:45:21;99857.53;;;37.49;30.20
54850;BME280;47660;51.334;12.396;2023-06-26T10:47:52;99855.88;;;38.99;28.77
54850;BME280;47660;51.334;12.396;2023-06-26T10:56:15;99853.66;;;38.76;27.97
54850;BME280;47660;51.334;12.396;2023-06-26T10:58:41;99850.94;;;38.71;27.90
54850;BME280;47660;51.334;12.396;2023-06-26T11:01:27;99852.59;;;38.53;28.15
54850;BME280;47660;51.334;12.396;2023-06-26T11:06:28;99841.59;;;38.43;28.56
54850;BME280;47660;51.334;12.396;2023-06-26T11:09:00;99842.72;;;39.04;27.06
54850;BME280;47660;51.334;12.396;2023-06-26T11:14:19;99818.69;;;39.47;27.07
54850;BME280;47660;51.334;12.396;2023-06-26T11:16:45;99815.69;;;40.04;26.94
54850;BME280;47660;51.334;12.396;2023-06-26T11:19:11;99819.47;;;39.14;26.82
54850;BME280;47660;51.334;12.396;2023-06-26T11:21:39;99815.38;;;38.73;28.15
54850;BME280;47660;51.334;12.396;2023-06-26T11:24:09;99831.59;;;37.64;28.96
54850;BME280;47660;51.334;12.396;2023-06-26T11:26:39;99816.19;;;38.06;28.39
54850;BME280;47660;51.334;12.396;2023-06-26T11:29:04;99819.69;;;37.93;28.26
54850;BME280;47660;51.334;12.396;2023-06-26T11:31:37;99812.72;;;38.63;27.67
54850;BME280;47660;51.334;12.396;2023-06-26T11:34:06;99814.13;;;37.93;28.34
54850;BME280;47660;51.334;12.396;2023-06-26T11:36:42;99811.44;;;38.31;28.39
54850;BME280;47660;51.334;12.396;2023-06-26T11:39:13;99809.28;;;37.50;29.12
54850;BME280;47660;51.334;12.396;2023-06-26T11:41:41;99812.13;;;38.23;28.53
54850;BME280;47660;51.334;12.396;2023-06-26T11:44:08;99796.75;;;39.26;27.38
54850;BME280;47660;51.334;12.396;2023-06-26T11:46:39;99802.00;;;38.32;27.30
54850;BME280;47660;51.334;12.396;2023-06-26T11:49:07;99796.72;;;38.11;28.09
54850;BME280;47660;51.334;12.396;2023-06-26T11:51:33;99791.22;;;37.52;28.31
54850;BME280;47660;51.334;12.396;2023-06-26T11:54:03;99800.81;;;38.38;27.88
54850;BME280;47660;51.334;12.396;2023-06-26T11:56:31;99790.59;;;39.29;27.48
54850;BME280;47660;51.334;12.396;2023-06-26T11:59:01;99787.75;;;39.34;26.47
54850;BME280;47660;51.334;12.396;2023-06-26T12:01:34;99804.97;;;39.17;27.55
54850;BME280;47660;51.334;12.396;2023-06-26T12:04:02;99800.94;;;38.52;27.36
54850;BME280;47660;51.334;12.396;2023-06-26T12:06:43;99796.63;;;40.11;25.77
54850;BME280;47660;51.334;12.396;2023-06-26T12:09:11;99790.56;;;39.95;26.37
54850;BME280;47660;51.334;12.396;2023-06-26T12:11:42;99789.03;;;40.54;25.26
54850;BME280;47660;51.334;12.396;2023-06-26T12:14:08;99780.19;;;39.54;26.07
54850;BME280;47660;51.334;12.396;2023-06-26T12:16:35;99777.44;;;41.11;24.71
54850;BME280;47660;51.334;12.396;2023-06-26T12:19:02;99782.19;;;40.37;25.46
54850;BME280;47660;51.334;12.396;2023-06-26T12:24:09;99779.78;;;39.28;25.25
54850;BME280;47660;51.334;12.396;2023-06-26T12:26:35;99783.00;;;38.63;25.99
54850;BME280;47660;51.334;12.396;2023-06-26T12:29:10;99768.63;;;39.47;26.06
54850;BME280;47660;51.334;12.396;2023-06-26T12:31:42;99775.06;;;39.61;25.76
54850;BME280;47660;51.334;12.396;2023-06-26T12:34:12;99766.44;;;40.05;25.74
54850;BME280;47660;51.334;12.396;2023-06-26T12:36:48;99763.69;;;39.11;26.68
54850;BME280;47660;51.334;12.396;2023-06-26T12:39:21;99768.03;;;40.48;26.16
54850;BME280;47660;51.334;12.396;2023-06-26T12:41:55;99763.09;;;41.04;25.12
54850;BME280;47660;51.334;12.396;2023-06-26T12:44:30;99744.16;;;42.36;23.44
54850;BME280;47660;51.334;12.396;2023-06-26T12:47:01;99752.47;;;41.06;24.60
54850;BME280;47660;51.334;12.396;2023-06-26T12:49:35;99751.25;;;42.60;23.21
54850;BME280;47660;51.334;12.396;2023-06-26T12:52:02;99746.22;;;39.85;25.14
54850;BME280;47660;51.334;12.396;2023-06-26T12:54:29;99743.44;;;40.13;24.27
54850;BME280;47660;51.334;12.396;2023-06-26T12:56:54;99742.31;;;40.65;25.16
54850;BME280;47660;51.334;12.396;2023-06-26T12:59:22;99739.94;;;40.58;24.33
54850;BME280;47660;51.334;12.396;2023-06-26T13:01:48;99745.19;;;39.67;25.23
54850;BME280;47660;51.334;12.396;2023-06-26T13:04:16;99737.59;;;40.51;24.68
54850;BME280;47660;51.334;12.396;2023-06-26T13:06:42;99740.19;;;42.28;22.62